createdAt,value
2024-01-26T00:01:28.828Z,28.30
2024-01-26T00:04:01.471Z,28.29
2024-01-26T00:06:32.352Z,28.27
2024-01-26T00:09:22.967Z,28.29
2024-01-26T00:11:53.457Z,28.31
2024-01-26T00:14:23.795Z,28.29
2024-01-26T00:16:54.284Z,28.31
2024-01-26T00:19:24.778Z,28.25
2024-01-26T00:21:55.098Z,28.26
2024-01-26T00:24:25.496Z,28.24
2024-01-26T00:26:55.902Z,28.27
2024-01-26T00:29:26.233Z,28.25
2024-01-26T00:31:56.599Z,28.30
2024-01-26T00:34:27.125Z,28.27
2024-01-26T00:36:57.948Z,28.26
2024-01-26T00:39:28.392Z,28.27
2024-01-26T00:41:59.021Z,28.26
2024-01-26T00:44:29.352Z,28.25
2024-01-26T00:46:59.530Z,28.30
2024-01-26T00:49:34.820Z,28.26
2024-01-26T00:52:12.467Z,28.26
2024-01-26T00:54:43.143Z,28.29
2024-01-26T00:57:13.679Z,28.29
2024-01-26T00:59:45.285Z,28.30
2024-01-26T01:02:16.285Z,28.29
2024-01-26T01:04:46.815Z,28.31
2024-01-26T01:07:17.104Z,28.28
2024-01-26T01:09:47.584Z,28.27
2024-01-26T01:12:18.132Z,28.31
2024-01-26T01:14:50.789Z,28.29
2024-01-26T01:17:21.400Z,28.29
2024-01-26T01:19:51.995Z,28.26
2024-01-26T01:22:22.508Z,28.30
2024-01-26T01:24:53.067Z,28.28
2024-01-26T01:27:23.377Z,28.33
2024-01-26T01:29:54.100Z,28.31
2024-01-26T01:32:24.604Z,28.35
2024-01-26T01:34:56.480Z,28.31
2024-01-26T01:37:26.983Z,28.31
2024-01-26T01:39:57.379Z,28.31
2024-01-26T01:42:28.861Z,28.31
2024-01-26T01:44:59.362Z,28.30
2024-01-26T01:47:31.739Z,28.24
2024-01-26T01:50:02.297Z,28.25
2024-01-26T01:52:34.065Z,28.29
2024-01-26T01:55:05.288Z,28.31
2024-01-26T01:57:36.366Z,28.30
2024-01-26T02:00:08.374Z,28.31
2024-01-26T02:02:40.304Z,28.31
2024-01-26T02:05:11.949Z,28.32
2024-01-26T02:07:42.208Z,28.30
2024-01-26T02:10:15.588Z,28.33
2024-01-26T02:12:46.568Z,28.33
2024-01-26T02:15:18.242Z,28.33
2024-01-26T02:17:48.940Z,28.33
2024-01-26T02:20:20.359Z,28.34
2024-01-26T02:22:51.542Z,28.33
2024-01-26T02:25:22.123Z,28.35
2024-01-26T02:27:56.025Z,28.36
2024-01-26T02:30:26.329Z,28.36
2024-01-26T02:32:56.913Z,28.39
2024-01-26T02:35:27.497Z,28.41
2024-01-26T02:37:57.966Z,28.44
2024-01-26T02:40:28.473Z,28.37
2024-01-26T02:42:59.275Z,28.37
2024-01-26T02:45:30.860Z,28.39
2024-01-26T02:48:01.420Z,28.43
2024-01-26T02:50:31.956Z,28.42
2024-01-26T02:53:02.320Z,28.38
2024-01-26T02:55:32.485Z,28.39
2024-01-26T02:58:02.633Z,28.41
2024-01-26T03:00:32.829Z,28.44
2024-01-26T03:03:03.354Z,28.44
2024-01-26T03:05:33.772Z,28.42
2024-01-26T03:08:04.165Z,28.45
2024-01-26T03:10:34.520Z,28.47
2024-01-26T03:13:04.851Z,28.48
2024-01-26T03:15:35.263Z,28.49
2024-01-26T03:18:06.520Z,28.47
2024-01-26T03:20:36.688Z,28.52
2024-01-26T03:23:07.053Z,28.49
2024-01-26T03:25:37.373Z,28.52
2024-01-26T03:28:08.375Z,28.50
2024-01-26T03:30:38.746Z,28.52
2024-01-26T03:33:10.308Z,28.53
2024-01-26T03:35:40.900Z,28.51
2024-01-26T03:38:11.257Z,28.53
2024-01-26T03:40:41.451Z,28.55
2024-01-26T03:43:11.827Z,28.55
2024-01-26T03:45:42.140Z,28.56
2024-01-26T03:48:12.768Z,28.54
2024-01-26T03:50:43.786Z,28.57
2024-01-26T03:53:15.014Z,28.55
2024-01-26T03:55:45.386Z,28.59
2024-01-26T03:58:15.705Z,28.59
2024-01-26T04:00:46.085Z,28.61
2024-01-26T04:03:16.728Z,28.64
2024-01-26T04:05:47.163Z,28.63
2024-01-26T04:08:18.293Z,28.65
2024-01-26T04:10:48.752Z,28.63
2024-01-26T04:13:19.312Z,28.63
2024-01-26T04:15:50.550Z,28.63
2024-01-26T04:18:20.832Z,28.63
2024-01-26T04:20:55.039Z,28.66
2024-01-26T04:23:25.508Z,28.67
2024-01-26T04:25:55.850Z,28.69
2024-01-26T04:28:26.253Z,28.69
2024-01-26T04:30:56.992Z,28.70
2024-01-26T04:33:27.617Z,28.70
2024-01-26T04:35:58.462Z,28.70
2024-01-26T04:38:28.734Z,28.73
2024-01-26T04:40:59.146Z,28.75
2024-01-26T04:43:29.509Z,28.75
2024-01-26T04:46:00.128Z,28.76
2024-01-26T04:48:30.808Z,28.75
2024-01-26T04:51:01.288Z,28.76
2024-01-26T04:53:31.811Z,28.77
2024-01-26T04:56:02.150Z,28.77
2024-01-26T04:58:32.500Z,28.77
2024-01-26T05:01:02.790Z,28.78
2024-01-26T05:03:33.581Z,28.78
2024-01-26T05:06:04.387Z,28.77
2024-01-26T05:08:34.902Z,28.80
2024-01-26T05:11:05.317Z,28.80
2024-01-26T05:13:35.752Z,28.82
2024-01-26T05:16:06.171Z,28.81
2024-01-26T05:18:36.845Z,28.82
2024-01-26T05:21:07.320Z,28.84
2024-01-26T05:23:37.750Z,28.83
2024-01-26T05:26:08.177Z,28.85
2024-01-26T05:28:39.812Z,28.84
2024-01-26T05:31:10.264Z,28.88
2024-01-26T05:33:40.729Z,28.91
2024-01-26T05:36:11.444Z,28.96
2024-01-26T05:38:41.742Z,28.95
2024-01-26T05:41:11.869Z,28.91
2024-01-26T05:43:43.396Z,28.91
2024-01-26T05:46:13.731Z,28.91
2024-01-26T05:48:48.263Z,28.92
2024-01-26T05:51:18.830Z,28.94
2024-01-26T05:53:49.429Z,28.95
2024-01-26T05:56:19.863Z,28.97
2024-01-26T05:58:50.257Z,28.96
2024-01-26T06:01:20.754Z,29.00
2024-01-26T06:03:51.125Z,28.98
2024-01-26T06:06:22.625Z,28.99
2024-01-26T06:08:53.075Z,29.02
2024-01-26T06:11:24.360Z,28.98
2024-01-26T06:13:55.362Z,28.99
2024-01-26T06:16:25.800Z,28.99
2024-01-26T06:18:56.314Z,28.97
2024-01-26T06:21:26.791Z,29.00
2024-01-26T06:23:57.358Z,29.00
2024-01-26T06:26:29.094Z,29.02
2024-01-26T06:28:59.426Z,29.03
2024-01-26T06:31:30.612Z,29.05
2024-01-26T06:34:00.996Z,29.05
2024-01-26T06:36:31.673Z,29.07
2024-01-26T06:39:02.089Z,29.06
2024-01-26T06:41:32.634Z,29.05
2024-01-26T06:44:02.996Z,29.06
2024-01-26T06:46:33.347Z,29.06
2024-01-26T06:49:05.806Z,29.05
2024-01-26T06:51:36.273Z,29.04
2024-01-26T06:54:06.792Z,29.09
2024-01-26T06:56:37.262Z,29.10
2024-01-26T06:59:07.920Z,29.11
2024-01-26T07:01:38.252Z,29.08
2024-01-26T07:04:09.016Z,29.10
2024-01-26T07:06:39.740Z,29.09
2024-01-26T07:09:12.140Z,29.12
2024-01-26T07:11:42.641Z,29.15
2024-01-26T07:14:16.788Z,29.16
2024-01-26T07:16:47.422Z,29.15
2024-01-26T07:19:18.602Z,29.17
2024-01-26T07:21:49.051Z,29.17
2024-01-26T07:24:19.644Z,29.17
2024-01-26T07:26:50.133Z,29.16
2024-01-26T07:29:20.691Z,29.18
2024-01-26T07:31:51.019Z,29.19
2024-01-26T07:34:21.642Z,29.20
2024-01-26T07:36:52.000Z,29.22
2024-01-26T07:39:25.444Z,29.21
2024-01-26T07:41:55.906Z,29.19
2024-01-26T07:44:26.249Z,29.20
2024-01-26T07:46:57.017Z,29.22
2024-01-26T07:49:30.180Z,29.21
2024-01-26T07:52:02.085Z,29.22
2024-01-26T07:54:32.461Z,29.21
2024-01-26T07:57:02.936Z,29.22
2024-01-26T07:59:33.248Z,29.23
2024-01-26T08:02:03.848Z,29.23
2024-01-26T08:04:34.292Z,29.25
2024-01-26T08:07:04.726Z,29.25
2024-01-26T08:09:35.130Z,29.27
2024-01-26T08:12:05.688Z,29.28
2024-01-26T08:14:36.067Z,29.30
2024-01-26T08:17:06.666Z,29.31
2024-01-26T08:19:39.096Z,29.33
2024-01-26T08:22:09.774Z,29.31
2024-01-26T08:24:40.390Z,29.31
2024-01-26T08:27:10.992Z,29.29
2024-01-26T08:29:43.389Z,29.28
2024-01-26T08:32:13.962Z,29.28
2024-01-26T08:34:46.256Z,29.28
2024-01-26T08:37:17.095Z,29.28
2024-01-26T08:39:48.450Z,29.28
2024-01-26T08:42:19.083Z,29.32
2024-01-26T08:44:49.516Z,29.30
2024-01-26T08:47:20.050Z,29.30
2024-01-26T08:49:50.545Z,29.31
2024-01-26T08:52:21.045Z,29.34
2024-01-26T08:54:51.497Z,29.33
2024-01-26T08:57:22.115Z,29.35
2024-01-26T08:59:52.543Z,29.39
2024-01-26T09:02:23.175Z,29.36
2024-01-26T09:04:53.565Z,29.34
2024-01-26T09:07:25.676Z,29.36
2024-01-26T09:09:56.804Z,29.39
2024-01-26T09:12:27.341Z,29.35
2024-01-26T09:14:58.463Z,29.35
2024-01-26T09:17:29.496Z,29.36
2024-01-26T09:20:00.069Z,29.39
2024-01-26T09:22:31.703Z,29.37
2024-01-26T09:25:02.077Z,29.38
2024-01-26T09:27:32.614Z,29.39
2024-01-26T09:30:04.199Z,29.39
2024-01-26T09:32:34.820Z,29.41
2024-01-26T09:35:08.366Z,29.39
2024-01-26T09:37:38.993Z,29.36
2024-01-26T09:40:10.107Z,29.40
2024-01-26T09:42:40.607Z,29.40
2024-01-26T09:45:15.542Z,29.41
2024-01-26T09:47:48.965Z,29.41
2024-01-26T09:50:22.919Z,29.42
2024-01-26T09:52:54.089Z,29.41
2024-01-26T09:55:24.689Z,29.41
2024-01-26T09:57:59.542Z,29.43
2024-01-26T10:00:30.710Z,29.41
2024-01-26T10:03:01.246Z,29.40
2024-01-26T10:05:31.794Z,29.41
2024-01-26T10:08:02.174Z,29.42
2024-01-26T10:10:32.619Z,29.40
2024-01-26T10:13:03.002Z,29.41
2024-01-26T10:15:33.606Z,29.40
2024-01-26T10:18:05.913Z,29.40
2024-01-26T10:20:36.067Z,29.43
2024-01-26T10:23:08.257Z,29.44
2024-01-26T10:25:39.624Z,29.44
2024-01-26T10:28:13.681Z,29.41
2024-01-26T10:30:47.541Z,29.42
2024-01-26T10:33:18.261Z,29.42
2024-01-26T10:35:51.292Z,29.41
2024-01-26T10:38:22.547Z,29.39
2024-01-26T10:40:52.631Z,29.41
2024-01-26T10:43:24.151Z,29.38
2024-01-26T10:45:55.423Z,29.38
2024-01-26T10:48:27.858Z,29.39
2024-01-26T10:51:00.329Z,29.40
2024-01-26T10:53:31.132Z,29.39
2024-01-26T10:56:02.301Z,29.38
2024-01-26T10:58:32.989Z,29.36
2024-01-26T11:01:03.727Z,29.36
2024-01-26T11:03:34.463Z,29.38
2024-01-26T11:06:05.142Z,29.40
2024-01-26T11:08:36.977Z,29.38
2024-01-26T11:11:07.793Z,29.39
2024-01-26T11:13:41.100Z,29.38
2024-01-26T11:16:11.868Z,29.38
2024-01-26T11:18:42.396Z,29.37
2024-01-26T11:21:23.184Z,29.39
2024-01-26T11:23:53.780Z,29.43
2024-01-26T11:26:24.388Z,29.41
2024-01-26T11:28:54.640Z,29.42
2024-01-26T11:31:32.740Z,29.40
2024-01-26T11:34:03.217Z,29.41
2024-01-26T11:36:35.970Z,29.44
2024-01-26T11:39:06.664Z,29.45
2024-01-26T11:41:37.139Z,29.44
2024-01-26T11:44:14.610Z,29.47
2024-01-26T11:46:46.181Z,29.45
2024-01-26T11:49:17.238Z,29.45
2024-01-26T11:51:47.571Z,29.46
2024-01-26T11:54:18.720Z,29.46
2024-01-26T11:56:50.124Z,29.45
2024-01-26T11:59:20.775Z,29.45
2024-01-26T12:01:51.249Z,29.44
2024-01-26T12:04:22.111Z,29.47
2024-01-26T12:06:52.514Z,29.42
2024-01-26T12:09:24.572Z,29.42
2024-01-26T12:11:55.265Z,29.43
2024-01-26T12:14:25.825Z,29.41
2024-01-26T12:16:56.219Z,29.41
2024-01-26T12:19:26.870Z,29.41
2024-01-26T12:21:57.178Z,29.42
2024-01-26T12:24:27.739Z,29.41
2024-01-26T12:26:58.822Z,29.42
2024-01-26T12:29:29.299Z,29.42
2024-01-26T12:32:11.700Z,29.41
2024-01-26T12:34:42.353Z,29.42
2024-01-26T12:37:16.484Z,29.44
2024-01-26T12:39:46.865Z,29.44
2024-01-26T12:42:17.650Z,29.43
2024-01-26T12:44:49.542Z,29.43
2024-01-26T12:47:21.530Z,29.43
2024-01-26T12:49:53.500Z,29.44
2024-01-26T12:52:24.159Z,29.45
2024-01-26T12:54:58.574Z,29.41
2024-01-26T12:57:28.926Z,29.41
2024-01-26T12:59:59.297Z,29.40
2024-01-26T13:02:29.772Z,29.39
2024-01-26T13:05:00.281Z,29.41
2024-01-26T13:07:31.306Z,29.41
2024-01-26T13:10:01.621Z,29.41
2024-01-26T13:12:32.138Z,29.40
2024-01-26T13:15:02.530Z,29.43
2024-01-26T13:17:32.976Z,29.43
2024-01-26T13:20:08.779Z,29.41
2024-01-26T13:22:46.509Z,29.42
2024-01-26T13:25:17.262Z,29.44
2024-01-26T13:27:48.163Z,29.44
2024-01-26T13:30:19.626Z,29.43
2024-01-26T13:32:51.356Z,29.46
2024-01-26T13:35:21.417Z,29.45
2024-01-26T13:37:52.019Z,29.46
2024-01-26T13:40:22.620Z,29.45
2024-01-26T13:42:53.256Z,29.46
2024-01-26T13:45:23.969Z,29.50
2024-01-26T13:48:00.877Z,29.50
2024-01-26T13:50:35.750Z,29.45
2024-01-26T13:53:06.325Z,29.49
2024-01-26T13:55:39.724Z,29.49
2024-01-26T13:58:11.177Z,29.52
2024-01-26T14:00:41.901Z,29.52
2024-01-26T14:03:12.793Z,29.53
2024-01-26T14:05:46.485Z,29.53
2024-01-26T14:08:17.246Z,29.54
2024-01-26T14:10:47.803Z,29.53
2024-01-26T14:13:18.494Z,29.54
2024-01-26T14:15:49.110Z,29.53
2024-01-26T14:18:20.040Z,29.51
2024-01-26T14:21:02.247Z,29.53
2024-01-26T14:23:32.618Z,29.52
2024-01-26T14:26:04.194Z,29.52
2024-01-26T14:28:34.680Z,29.52
2024-01-26T14:31:05.151Z,29.51
2024-01-26T14:33:35.669Z,29.50
2024-01-26T14:36:06.469Z,29.50
2024-01-26T14:38:37.552Z,29.49
2024-01-26T14:41:07.851Z,29.51
2024-01-26T14:43:38.162Z,29.53
2024-01-26T14:46:12.186Z,29.51
2024-01-26T14:48:42.754Z,29.51
2024-01-26T14:51:13.879Z,29.50
2024-01-26T14:53:45.208Z,29.50
2024-01-26T14:56:16.024Z,29.49
2024-01-26T14:58:46.734Z,29.50
2024-01-26T15:01:17.314Z,29.52
2024-01-26T15:03:48.112Z,29.51
2024-01-26T15:06:18.593Z,29.51
2024-01-26T15:08:50.015Z,29.54
2024-01-26T15:11:21.138Z,29.51
2024-01-26T15:13:51.573Z,29.51
2024-01-26T15:16:23.636Z,29.51
2024-01-26T15:18:54.953Z,29.51
2024-01-26T15:21:25.326Z,29.53
2024-01-26T15:23:56.489Z,29.52
2024-01-26T15:26:27.002Z,29.38
2024-01-26T15:28:57.382Z,29.28
2024-01-26T15:31:27.700Z,29.25
2024-01-26T15:33:58.241Z,29.22
2024-01-26T15:36:32.942Z,29.20
2024-01-26T15:39:03.618Z,29.31
2024-01-26T15:41:34.937Z,29.36
2024-01-26T15:44:06.995Z,29.40
2024-01-26T15:46:37.397Z,29.40
2024-01-26T15:49:08.353Z,29.40
2024-01-26T15:51:39.016Z,29.41
2024-01-26T15:54:09.774Z,29.43
2024-01-26T15:56:43.470Z,29.44
2024-01-26T15:59:15.184Z,29.45
2024-01-26T16:01:45.566Z,29.40
2024-01-26T16:04:16.257Z,29.43
2024-01-26T16:06:50.374Z,29.41
2024-01-26T16:09:22.488Z,29.41
2024-01-26T16:11:54.682Z,29.37
2024-01-26T16:14:25.210Z,29.40
2024-01-26T16:16:55.612Z,29.39
2024-01-26T16:19:26.276Z,29.38
2024-01-26T16:21:56.745Z,29.39
2024-01-26T16:24:27.304Z,29.38
2024-01-26T16:27:00.504Z,29.36
2024-01-26T16:29:31.032Z,29.36
2024-01-26T16:32:01.501Z,29.32
2024-01-26T16:34:32.194Z,29.31
2024-01-26T16:37:02.719Z,29.30
2024-01-26T16:39:33.967Z,29.32
2024-01-26T16:42:06.379Z,29.28
2024-01-26T16:44:36.888Z,29.31
2024-01-26T16:47:07.586Z,29.30
2024-01-26T16:49:37.913Z,29.29
2024-01-26T16:52:08.407Z,29.30
2024-01-26T16:54:39.017Z,29.31
2024-01-26T16:57:09.706Z,29.32
2024-01-26T16:59:40.476Z,29.28
2024-01-26T17:02:11.393Z,29.26
2024-01-26T17:04:42.049Z,29.26
2024-01-26T17:07:12.550Z,29.25
2024-01-26T17:09:42.981Z,29.21
2024-01-26T17:12:13.469Z,29.23
2024-01-26T17:14:44.330Z,29.21
2024-01-26T17:17:14.818Z,29.22
2024-01-26T17:19:54.716Z,29.20
2024-01-26T17:22:25.379Z,29.18
2024-01-26T17:25:01.753Z,29.19
2024-01-26T17:27:38.076Z,29.17
2024-01-26T17:30:09.648Z,29.14
2024-01-26T17:32:42.392Z,29.14
2024-01-26T17:35:13.263Z,29.20
2024-01-26T17:37:43.722Z,29.18
2024-01-26T17:40:14.615Z,29.19
2024-01-26T17:42:45.038Z,29.16
2024-01-26T17:45:15.442Z,29.15
2024-01-26T17:47:47.355Z,29.13
2024-01-26T17:50:17.963Z,29.14
2024-01-26T17:52:48.295Z,29.13
2024-01-26T17:55:18.866Z,29.14
2024-01-26T17:57:49.270Z,29.14
2024-01-26T18:00:20.207Z,29.15
2024-01-26T18:02:50.868Z,29.14
2024-01-26T18:05:23.269Z,29.14
2024-01-26T18:07:53.887Z,29.14
2024-01-26T18:10:24.436Z,29.16
2024-01-26T18:13:25.293Z,29.14
2024-01-26T18:15:55.713Z,29.15
2024-01-26T18:18:26.493Z,29.13
2024-01-26T18:20:57.047Z,29.08
2024-01-26T18:23:27.692Z,29.07
2024-01-26T18:25:58.118Z,29.10
2024-01-26T18:28:28.482Z,29.12
2024-01-26T18:30:58.830Z,29.08
2024-01-26T18:33:29.404Z,29.13
2024-01-26T18:36:00.686Z,29.10
2024-01-26T18:38:32.409Z,29.10
2024-01-26T18:41:02.582Z,29.10
2024-01-26T18:43:32.762Z,29.08
2024-01-26T18:46:03.775Z,29.06
2024-01-26T18:48:34.251Z,29.08
2024-01-26T18:51:04.692Z,29.07
2024-01-26T18:53:35.080Z,29.05
2024-01-26T18:56:05.516Z,29.07
2024-01-26T18:58:36.461Z,29.06
2024-01-26T19:01:07.036Z,29.03
2024-01-26T19:03:38.109Z,29.05
2024-01-26T19:06:09.343Z,29.04
2024-01-26T19:08:42.847Z,29.05
2024-01-26T19:11:14.514Z,29.03
2024-01-26T19:13:46.329Z,29.00
2024-01-26T19:16:18.617Z,29.01
2024-01-26T19:18:53.211Z,29.05
2024-01-26T19:21:24.149Z,29.06
2024-01-26T19:23:54.697Z,29.06
2024-01-26T19:26:25.580Z,29.06
2024-01-26T19:28:55.894Z,29.05
2024-01-26T19:31:27.709Z,29.01
2024-01-26T19:33:58.218Z,29.08
2024-01-26T19:36:31.092Z,29.04
2024-01-26T19:39:01.788Z,29.07
2024-01-26T19:41:33.105Z,29.04
2024-01-26T19:44:05.113Z,29.05
2024-01-26T19:46:35.467Z,29.02
2024-01-26T19:49:06.016Z,29.00
2024-01-26T19:51:36.664Z,28.98
2024-01-26T19:54:07.149Z,29.00
2024-01-26T19:56:37.496Z,29.01
2024-01-26T19:59:07.943Z,29.00
2024-01-26T20:01:38.322Z,28.98
2024-01-26T20:04:08.745Z,28.98
2024-01-26T20:06:39.729Z,28.99
2024-01-26T20:09:10.115Z,28.98
2024-01-26T20:11:41.888Z,29.00
2024-01-26T20:14:12.745Z,28.96
2024-01-26T20:16:43.178Z,28.99
2024-01-26T20:19:13.822Z,28.96
2024-01-26T20:21:44.301Z,28.97
2024-01-26T20:24:15.277Z,28.96
2024-01-26T20:26:46.176Z,28.95
2024-01-26T20:29:17.033Z,28.95
2024-01-26T20:31:48.423Z,28.96
2024-01-26T20:34:19.330Z,28.93
2024-01-26T20:36:50.066Z,28.94
2024-01-26T20:39:20.612Z,28.96
2024-01-26T20:41:55.027Z,28.96
2024-01-26T20:44:25.954Z,28.96
2024-01-26T20:46:56.320Z,28.96
2024-01-26T20:49:27.738Z,28.93
2024-01-26T20:51:57.899Z,28.94
2024-01-26T20:54:28.106Z,28.94
2024-01-26T20:56:59.079Z,28.93
2024-01-26T20:59:29.466Z,28.92
2024-01-26T21:02:00.025Z,28.95
2024-01-26T21:04:31.269Z,28.90
2024-01-26T21:07:01.470Z,28.90
2024-01-26T21:09:33.153Z,28.89
2024-01-26T21:12:03.551Z,28.92
2024-01-26T21:14:33.917Z,28.90
2024-01-26T21:17:07.970Z,28.93
2024-01-26T21:19:38.780Z,28.93
2024-01-26T21:22:09.168Z,28.90
2024-01-26T21:24:39.466Z,28.91
2024-01-26T21:27:10.418Z,28.91
2024-01-26T21:29:40.782Z,28.92
2024-01-26T21:32:15.680Z,28.94
2024-01-26T21:34:46.166Z,28.93
2024-01-26T21:37:19.938Z,28.94
2024-01-26T21:39:51.670Z,28.90
2024-01-26T21:42:25.336Z,28.88
2024-01-26T21:44:57.254Z,28.90
2024-01-26T21:47:28.255Z,28.90
2024-01-26T21:49:59.022Z,28.92
2024-01-26T21:52:30.401Z,28.88
2024-01-26T21:55:00.858Z,28.88
2024-01-26T21:57:31.325Z,28.87
2024-01-26T22:00:01.828Z,28.88
2024-01-26T22:02:34.950Z,28.85
2024-01-26T22:20:10.738Z,28.65
2024-01-26T22:22:47.489Z,28.63
2024-01-26T22:25:20.814Z,28.63
2024-01-26T22:28:07.596Z,28.64
2024-01-26T22:30:37.955Z,28.68
2024-01-26T22:33:08.602Z,28.70
2024-01-26T22:35:39.012Z,28.72
2024-01-26T22:38:09.378Z,28.76
2024-01-26T22:40:39.811Z,28.80
2024-01-26T22:43:10.324Z,28.81
2024-01-26T22:45:40.773Z,28.82
2024-01-26T22:48:11.502Z,28.82
2024-01-26T22:50:42.951Z,28.82
2024-01-26T22:53:13.342Z,28.81
2024-01-26T22:55:43.803Z,28.83
2024-01-26T22:58:14.386Z,28.85
2024-01-26T23:00:44.748Z,28.85
2024-01-26T23:03:15.177Z,28.84
2024-01-26T23:05:47.318Z,28.87
2024-01-26T23:08:18.986Z,28.90
2024-01-26T23:10:49.386Z,28.87
2024-01-26T23:13:19.932Z,28.89
2024-01-26T23:15:50.332Z,28.89
2024-01-26T23:18:21.933Z,28.90
2024-01-26T23:20:52.544Z,28.90
2024-01-26T23:23:23.093Z,28.96
2024-01-26T23:25:53.664Z,28.94
2024-01-26T23:28:26.729Z,28.95
2024-01-26T23:30:57.668Z,28.89
2024-01-26T23:33:28.220Z,28.91
2024-01-26T23:35:59.235Z,28.89
2024-01-26T23:38:29.918Z,28.82
2024-01-26T23:41:00.361Z,28.83
2024-01-26T23:43:31.023Z,28.84
2024-01-26T23:46:03.494Z,28.81
2024-01-26T23:48:34.317Z,28.80
2024-01-26T23:51:07.652Z,28.85
2024-01-26T23:53:38.078Z,28.79
2024-01-26T23:56:08.491Z,28.81
2024-01-26T23:58:38.900Z,28.81
